createdAt,value
2019-01-21T00:04:57.803Z,57.47
2019-01-21T00:10:15.639Z,51.57
2019-01-21T00:15:33.521Z,74.30
2019-01-21T00:20:52.016Z,55.83
2019-01-21T00:26:09.855Z,64.27
2019-01-21T00:31:27.707Z,64.63
2019-01-21T00:36:45.542Z,63.87
2019-01-21T00:42:03.373Z,54.43
2019-01-21T00:47:21.224Z,54.57
2019-01-21T00:52:39.068Z,55.17
2019-01-21T00:57:56.889Z,56.67
2019-01-21T01:03:14.722Z,59.80
2019-01-21T01:08:32.615Z,61.17
2019-01-21T01:13:50.443Z,64.30
2019-01-21T01:19:08.274Z,65.73
2019-01-21T01:24:26.106Z,66.97
2019-01-21T01:29:43.939Z,62.07
2019-01-21T01:35:01.775Z,60.53
2019-01-21T01:40:19.600Z,55.83
2019-01-21T01:45:37.471Z,53.23
2019-01-21T01:50:55.331Z,61.73
2019-01-21T01:56:14.142Z,62.07
2019-01-21T02:01:32.042Z,65.10
2019-01-21T02:06:49.875Z,55.60
2019-01-21T02:12:07.703Z,59.57
2019-01-21T02:17:25.549Z,57.10
2019-01-21T02:22:45.215Z,55.30
2019-01-21T02:28:31.183Z,59.83
2019-01-21T02:34:14.893Z,62.67
2019-01-21T02:39:58.692Z,65.77
2019-01-21T02:45:25.408Z,59.77
2019-01-21T02:51:04.553Z,55.30
2019-01-21T02:56:34.811Z,59.37
2019-01-21T03:02:22.831Z,57.20
2019-01-21T03:08:04.065Z,74.43
2019-01-21T03:13:34.139Z,54.37
2019-01-21T03:19:01.156Z,54.23
2019-01-21T03:24:56.752Z,55.57
2019-01-21T03:30:41.602Z,62.27
2019-01-21T03:36:17.453Z,64.20
2019-01-21T03:41:50.666Z,56.63
2019-01-21T03:47:20.469Z,52.27
2019-01-21T03:52:41.623Z,54.17
2019-01-21T03:58:23.684Z,53.97
2019-01-21T04:04:00.121Z,58.07
2019-01-21T04:09:21.256Z,63.50
2019-01-21T04:14:51.308Z,58.03
2019-01-21T04:20:33.211Z,58.30
2019-01-21T04:25:54.643Z,52.50
2019-01-21T04:31:15.747Z,57.90
2019-01-21T04:36:55.099Z,66.30
2019-01-21T04:42:24.938Z,61.03
2019-01-21T04:47:57.829Z,55.50
2019-01-21T04:53:21.792Z,46.90
2019-01-21T04:58:54.815Z,50.77
2019-01-21T05:04:30.559Z,55.27
2019-01-21T05:10:06.625Z,57.30
2019-01-21T05:15:30.322Z,60.17
2019-01-21T05:21:21.542Z,55.57
2019-01-21T05:27:01.209Z,56.10
2019-01-21T05:32:37.271Z,55.33
2019-01-21T05:38:01.505Z,58.50
2019-01-21T05:43:28.696Z,60.03
2019-01-21T05:49:06.188Z,58.10
2019-01-21T05:54:59.540Z,48.33
2019-01-21T06:00:26.258Z,49.33
2019-01-21T06:06:05.729Z,42.67
2019-01-21T06:11:26.803Z,44.17
2019-01-21T06:16:59.665Z,45.57
2019-01-21T06:22:51.383Z,45.30
2019-01-21T06:28:18.440Z,51.03
2019-01-21T06:34:11.399Z,44.57
2019-01-21T06:40:04.169Z,45.53
2019-01-21T06:45:40.352Z,50.73
2019-01-21T06:51:19.072Z,58.33
2019-01-21T06:57:00.536Z,54.73
2019-01-21T07:02:47.105Z,49.00
2019-01-21T07:08:41.534Z,50.47
2019-01-21T07:14:21.019Z,52.03
2019-01-21T07:19:46.315Z,55.17
2019-01-21T07:25:25.360Z,55.77
2019-01-21T07:31:05.747Z,57.30
2019-01-21T07:36:50.800Z,54.43
2019-01-21T07:42:33.267Z,46.60
2019-01-21T07:48:15.681Z,59.10
2019-01-21T07:53:39.520Z,56.57
2019-01-21T07:59:15.568Z,42.80
2019-01-21T08:04:36.683Z,42.47
2019-01-21T08:10:17.580Z,40.47
2019-01-21T08:15:41.420Z,53.33
2019-01-21T08:21:02.505Z,50.57
2019-01-21T08:26:24.588Z,40.37
2019-01-21T08:31:48.464Z,37.70
2019-01-21T08:37:38.966Z,40.93
2019-01-21T08:43:24.488Z,31.20
2019-01-21T08:49:03.915Z,33.53
2019-01-21T08:54:40.223Z,36.03
2019-01-21T09:00:07.472Z,32.03
2019-01-21T09:05:40.356Z,29.73
2019-01-21T09:11:13.534Z,28.27
2019-01-21T09:16:49.969Z,30.83
2019-01-21T09:22:23.127Z,32.07
2019-01-21T09:27:59.339Z,34.03
2019-01-21T09:33:23.254Z,29.57
2019-01-21T09:38:56.756Z,29.50
2019-01-21T09:44:27.237Z,27.93
2019-01-21T09:49:47.119Z,27.43
2019-01-21T09:55:06.983Z,28.00
2019-01-21T10:00:25.103Z,26.47
2019-01-21T10:05:44.759Z,24.60
2019-01-21T10:11:12.200Z,26.97
2019-01-21T10:16:48.211Z,29.23
2019-01-21T10:22:15.555Z,29.07
2019-01-21T10:27:49.516Z,30.60
2019-01-21T10:33:30.395Z,29.43
2019-01-21T10:39:13.376Z,28.40
2019-01-21T10:44:52.674Z,24.13
2019-01-21T10:50:32.232Z,29.83
2019-01-21T10:56:08.367Z,31.83
2019-01-21T11:01:44.917Z,29.63
2019-01-21T11:07:32.088Z,32.57
2019-01-21T11:12:59.160Z,35.57
2019-01-21T11:18:32.615Z,25.53
2019-01-21T11:24:19.560Z,25.13
2019-01-21T11:29:49.159Z,27.00
2019-01-21T11:35:25.708Z,23.90
2019-01-21T11:40:56.140Z,24.93
2019-01-21T11:46:17.513Z,30.03
2019-01-21T11:52:00.038Z,24.50
2019-01-21T11:57:40.629Z,24.40
2019-01-21T12:03:23.643Z,25.30
2019-01-21T12:09:04.175Z,27.53
2019-01-21T12:14:53.314Z,24.30
2019-01-21T12:20:20.612Z,24.47
2019-01-21T12:25:47.816Z,24.53
2019-01-21T12:31:18.063Z,25.43
2019-01-21T12:36:39.149Z,27.17
2019-01-21T12:42:15.052Z,28.17
2019-01-21T12:47:42.198Z,29.13
2019-01-21T12:53:15.208Z,34.23
2019-01-21T12:58:38.943Z,33.47
2019-01-21T13:04:11.960Z,31.40
2019-01-21T13:09:35.695Z,29.90
2019-01-21T13:15:08.568Z,32.00
2019-01-21T13:20:38.732Z,29.93
2019-01-21T13:26:33.247Z,25.90
2019-01-21T13:32:09.614Z,30.47
2019-01-21T13:37:45.079Z,29.40
2019-01-21T13:43:30.648Z,27.17
2019-01-21T13:49:16.001Z,27.20
2019-01-21T13:54:59.905Z,23.97
2019-01-21T14:00:35.993Z,28.00
2019-01-21T14:06:11.444Z,24.63
2019-01-21T14:11:58.443Z,22.90
2019-01-21T14:17:28.312Z,31.27
2019-01-21T14:22:52.044Z,22.10
2019-01-21T14:28:44.895Z,25.40
2019-01-21T14:34:11.460Z,23.97
2019-01-21T14:39:41.299Z,28.00
2019-01-21T14:45:13.794Z,28.37
2019-01-21T14:51:00.644Z,27.10
2019-01-21T14:56:21.751Z,31.20
2019-01-21T15:01:45.754Z,52.60
2019-01-21T15:07:09.815Z,27.70
2019-01-21T15:12:37.057Z,30.10
2019-01-21T15:18:14.740Z,29.50
2019-01-21T15:23:41.404Z,40.60
2019-01-21T15:29:25.325Z,28.50
2019-01-21T15:35:09.969Z,35.00
2019-01-21T15:40:33.988Z,39.80
2019-01-21T15:46:13.019Z,41.37
2019-01-21T15:51:34.122Z,38.03
2019-01-21T15:57:04.072Z,34.83
2019-01-21T16:02:25.184Z,42.83
2019-01-21T16:07:48.891Z,41.20
2019-01-21T16:13:22.156Z,40.43
2019-01-21T16:18:43.244Z,45.97
2019-01-21T16:24:07.088Z,50.30
2019-01-21T16:29:37.284Z,72.70
2019-01-21T16:35:00.879Z,58.70
2019-01-21T16:40:27.335Z,80.00
2019-01-21T16:45:45.128Z,110.23
2019-01-21T16:51:02.967Z,88.20
2019-01-21T16:56:20.807Z,84.50
2019-01-21T17:01:38.684Z,80.10
2019-01-21T17:06:56.575Z,69.97
2019-01-21T17:12:14.369Z,58.53
2019-01-21T17:17:32.201Z,82.07
2019-01-21T17:22:50.125Z,53.80
2019-01-21T17:28:07.967Z,41.87
2019-01-21T17:33:25.796Z,36.87
2019-01-21T17:38:43.635Z,46.27
2019-01-21T17:44:01.489Z,43.40
2019-01-21T17:49:19.819Z,43.13
2019-01-21T17:54:37.740Z,45.10
2019-01-21T17:59:55.643Z,50.17
2019-01-21T18:05:14.204Z,51.43
2019-01-21T18:10:32.106Z,52.50
2019-01-21T18:15:49.936Z,48.97
2019-01-21T18:21:07.787Z,52.93
2019-01-21T18:26:25.619Z,56.10
2019-01-21T18:31:43.499Z,56.10
2019-01-21T18:37:01.310Z,49.43
2019-01-21T18:42:19.144Z,50.67
2019-01-21T18:47:37.131Z,52.73
2019-01-21T18:52:54.994Z,50.50
2019-01-21T18:58:12.815Z,60.10
2019-01-21T19:03:30.668Z,53.33
2019-01-21T19:08:48.500Z,54.63
2019-01-21T19:14:06.369Z,54.53
2019-01-21T19:19:24.268Z,56.83
2019-01-21T19:24:44.022Z,63.80
2019-01-21T19:30:01.867Z,54.33
2019-01-21T19:35:22.960Z,59.13
2019-01-21T19:40:40.842Z,63.23
2019-01-21T19:45:59.046Z,56.40
2019-01-21T19:51:17.094Z,52.07
2019-01-21T19:56:34.993Z,57.03
2019-01-21T20:01:52.908Z,53.37
2019-01-21T20:07:11.818Z,50.73
2019-01-21T20:12:29.659Z,59.30
2019-01-21T20:17:47.488Z,59.73
2019-01-21T20:23:05.497Z,59.13
2019-01-21T20:28:23.383Z,67.87
2019-01-21T20:33:41.222Z,65.97
2019-01-21T20:38:59.093Z,55.37
2019-01-21T20:44:16.983Z,60.50
2019-01-21T20:49:34.847Z,52.50
2019-01-21T20:54:52.714Z,60.30
2019-01-21T21:00:13.827Z,57.20
2019-01-21T21:05:31.826Z,54.90
2019-01-21T21:10:49.744Z,54.63
2019-01-21T21:16:07.651Z,70.70
2019-01-21T21:21:25.479Z,60.17
2019-01-21T21:26:43.320Z,65.30
2019-01-21T21:32:01.236Z,61.30
2019-01-21T21:37:19.078Z,60.50
2019-01-21T21:42:37.087Z,64.23
2019-01-21T21:47:55.100Z,66.93
2019-01-21T21:53:12.973Z,71.67
2019-01-21T21:58:30.867Z,68.20
2019-01-21T22:03:48.757Z,62.23
2019-01-21T22:09:07.059Z,67.97
2019-01-21T22:14:25.763Z,60.10
2019-01-21T22:19:43.667Z,61.87
2019-01-21T22:25:01.497Z,55.33
2019-01-21T22:30:21.266Z,62.20
2019-01-21T22:35:39.112Z,64.30
2019-01-21T22:40:56.952Z,65.90
2019-01-21T22:46:14.992Z,73.77
2019-01-21T22:51:32.856Z,69.73
2019-01-21T22:56:50.830Z,69.33
2019-01-21T23:02:09.117Z,69.57
2019-01-21T23:07:26.952Z,67.47
2019-01-21T23:12:44.819Z,59.83
2019-01-21T23:18:04.444Z,64.47
2019-01-21T23:23:22.452Z,58.40
2019-01-21T23:28:40.287Z,58.20
2019-01-21T23:33:58.115Z,65.53
2019-01-21T23:39:15.955Z,54.03
2019-01-21T23:44:33.855Z,54.67
2019-01-21T23:49:51.898Z,49.60
2019-01-21T23:55:10.975Z,48.03
